Time;durP1;ratioP1;P1;durP2;ratioP2;P2;SDS_P1;SDS_P2;PMS_P1;PMS_P2;Temp;Humidity;BMP_temperature;BMP_pressure;BME280_temperature;BME280_humidity;BME280_pressure;Samples;Min_cycle;Max_cycle;Signal;HPM_P1;HPM_P2
2021/08/19 00:00:21;;;;;;;4.50;4.10;;;18.50;99.90;;;;;;5074640;28;20465;-75
2021/08/19 00:02:49;;;;;;;5.90;5.40;;;18.50;99.90;;;;;;5075442;28;20489;-76
2021/08/19 00:05:16;;;;;;;6.20;5.60;;;18.50;99.90;;;;;;5074748;28;20905;-76
2021/08/19 00:07:42;;;;;;;6.57;4.43;;;18.50;99.90;;;;;;5074435;28;20458;-76
2021/08/19 00:10:10;;;;;;;5.43;4.93;;;18.50;99.90;;;;;;5074776;28;20458;-75
2021/08/19 00:12:37;;;;;;;6.80;5.70;;;18.50;99.90;;;;;;5075611;28;20531;-75
2021/08/19 00:15:05;;;;;;;5.53;5.03;;;18.50;99.90;;;;;;5074050;28;20454;-74
2021/08/19 00:17:32;;;;;;;6.07;5.57;;;18.50;99.90;;;;;;5074279;28;20774;-75
2021/08/19 00:20:00;;;;;;;5.80;5.30;;;18.50;99.90;;;;;;5074075;28;20579;-74
2021/08/19 00:22:27;;;;;;;6.40;5.83;;;18.50;99.90;;;;;;5074177;28;20504;-74
2021/08/19 00:24:53;;;;;;;6.37;5.77;;;18.50;99.90;;;;;;5073895;28;20458;-74
2021/08/19 00:27:20;;;;;;;7.10;6.40;;;18.50;99.90;;;;;;5074049;28;20476;-74
2021/08/19 00:29:47;;;;;;;7.07;6.37;;;18.40;99.90;;;;;;5074497;28;20462;-74
2021/08/19 00:32:13;;;;;;;7.27;6.67;;;18.40;99.90;;;;;;5075679;28;20458;-74
2021/08/19 00:34:40;;;;;;;7.47;6.40;;;18.40;99.90;;;;;;5078674;28;20524;-74
2021/08/19 00:37:09;;;;;;;7.37;6.67;;;18.40;99.90;;;;;;5078129;28;20794;-76
2021/08/19 00:39:36;;;;;;;7.83;7.13;;;18.40;99.90;;;;;;5077695;28;20938;-74
2021/08/19 00:42:03;;;;;;;7.67;6.97;;;18.40;99.90;;;;;;5077904;28;20746;-73
2021/08/19 00:44:29;;;;;;;8.43;7.63;;;18.30;99.90;;;;;;5077554;28;20922;-74
2021/08/19 00:46:56;;;;;;;8.90;8.00;;;18.30;99.90;;;;;;5077396;28;20907;-74
2021/08/19 00:49:23;;;;;;;11.00;8.33;;;18.30;99.90;;;;;;5077470;28;20454;-75
2021/08/19 00:51:51;;;;;;;8.00;7.30;;;18.30;99.90;;;;;;5077227;28;20922;-75
2021/08/19 00:54:22;;;;;;;8.17;7.47;;;18.30;99.90;;;;;;5077724;28;20462;-74
2021/08/19 00:56:53;;;;;;;9.00;8.10;;;18.30;99.90;;;;;;5077568;28;20495;-74
2021/08/19 00:59:23;;;;;;;9.03;8.13;;;18.30;99.90;;;;;;5077833;28;20442;-76
2021/08/19 01:01:49;;;;;;;9.73;8.73;;;18.30;99.90;;;;;;5077460;28;20517;-74
2021/08/19 01:04:16;;;;;;;9.33;8.43;;;18.30;99.90;;;;;;5077239;28;20898;-75
2021/08/19 01:06:43;;;;;;;10.00;8.60;;;18.30;99.90;;;;;;5077028;28;21032;-75
2021/08/19 01:09:10;;;;;;;10.40;9.30;;;18.30;99.90;;;;;;5077290;28;20454;-75
2021/08/19 01:11:41;;;;;;;9.73;8.70;;;18.30;99.90;;;;;;5077331;28;20450;-75
2021/08/19 01:14:08;;;;;;;9.70;8.70;;;18.30;99.90;;;;;;5077108;28;20770;-74
2021/08/19 01:16:34;;;;;;;10.67;9.57;;;18.30;99.90;;;;;;5076743;28;20930;-75
2021/08/19 01:19:01;;;;;;;10.40;9.30;;;18.30;99.90;;;;;;5076914;28;20477;-73
2021/08/19 01:21:28;;;;;;;10.53;9.53;;;18.30;99.90;;;;;;5076817;28;20482;-74
2021/08/19 01:23:55;;;;;;;10.77;9.67;;;18.30;99.90;;;;;;5077302;28;20457;-74
2021/08/19 01:26:22;;;;;;;10.17;9.13;;;18.30;99.90;;;;;;5076981;28;20454;-74
2021/08/19 01:28:54;;;;;;;10.40;9.33;;;18.30;99.90;;;;;;5076695;28;20458;-74
2021/08/19 01:31:24;;;;;;;11.07;9.97;;;18.30;99.90;;;;;;5076877;28;20454;-76
2021/08/19 01:33:51;;;;;;;10.60;9.63;;;18.30;99.90;;;;;;5076889;28;20512;-74
2021/08/19 01:36:18;;;;;;;10.90;9.80;;;18.30;99.90;;;;;;5076807;28;20458;-74
2021/08/19 01:38:46;;;;;;;11.17;10.00;;;18.30;99.90;;;;;;5076771;28;20454;-74
2021/08/19 01:41:13;;;;;;;10.33;9.33;;;18.30;99.90;;;;;;5076884;28;20458;-74
2021/08/19 01:43:40;;;;;;;9.70;8.70;;;18.30;99.90;;;;;;5076247;28;20442;-74
2021/08/19 01:46:11;;;;;;;10.70;9.60;;;18.30;99.90;;;;;;5076651;28;20438;-74
2021/08/19 01:48:38;;;;;;;10.53;9.43;;;18.30;99.90;;;;;;5076523;28;20512;-75
2021/08/19 01:51:07;;;;;;;9.93;9.03;;;18.20;99.90;;;;;;5076893;28;20477;-75
2021/08/19 01:53:33;;;;;;;10.50;9.43;;;18.30;99.90;;;;;;5076333;28;20446;-74
2021/08/19 01:56:00;;;;;;;9.43;8.53;;;18.30;99.90;;;;;;5076819;28;20468;-75
2021/08/19 01:58:27;;;;;;;10.50;9.50;;;18.30;99.90;;;;;;5076391;28;20906;-74
2021/08/19 02:00:55;;;;;;;10.30;9.30;;;18.30;99.90;;;;;;5076639;28;20462;-75
2021/08/19 02:03:23;;;;;;;9.80;8.80;;;18.20;99.90;;;;;;5075851;28;20983;-75
2021/08/19 02:05:49;;;;;;;10.50;9.40;;;18.20;99.90;;;;;;5076475;28;20926;-75
2021/08/19 02:08:17;;;;;;;10.00;9.00;;;18.20;99.90;;;;;;5077282;28;20454;-75
2021/08/19 02:10:47;;;;;;;10.80;8.33;;;18.20;99.90;;;;;;5076382;28;20461;-74
2021/08/19 02:13:15;;;;;;;15.27;9.50;;;18.20;99.90;;;;;;5076188;28;20914;-76
2021/08/19 02:15:42;;;;;;;10.73;9.07;;;18.20;99.90;;;;;;5076465;28;20454;-74
2021/08/19 02:18:09;;;;;;;9.30;7.90;;;18.20;99.90;;;;;;5076427;28;20595;-74
2021/08/19 02:20:37;;;;;;;8.97;8.07;;;18.20;99.90;;;;;;5076491;28;20465;-74
2021/08/19 02:23:04;;;;;;;11.30;8.70;;;18.20;99.90;;;;;;5076581;28;20958;-74
2021/08/19 02:25:31;;;;;;;8.13;7.43;;;18.20;99.90;;;;;;5076413;28;20786;-74
2021/08/19 02:27:58;;;;;;;7.27;6.67;;;18.20;99.90;;;;;;5076438;28;20462;-74
2021/08/19 02:30:25;;;;;;;8.23;7.43;;;18.20;99.90;;;;;;5076517;28;20454;-73
2021/08/19 02:32:55;;;;;;;10.00;9.13;;;18.20;99.90;;;;;;5077496;28;20454;-74
2021/08/19 02:35:22;;;;;;;8.70;7.90;;;18.20;99.90;;;;;;5077061;28;20458;-74
2021/08/19 02:37:50;;;;;;;8.50;7.70;;;18.20;99.90;;;;;;5076200;28;20454;-74
2021/08/19 02:40:17;;;;;;;9.00;8.10;;;18.20;99.90;;;;;;5076609;28;20496;-74
2021/08/19 02:42:44;;;;;;;9.80;8.47;;;18.10;99.90;;;;;;5075865;28;20489;-75
2021/08/19 02:45:11;;;;;;;8.80;7.90;;;18.10;99.90;;;;;;5075659;28;20451;-74
2021/08/19 02:47:38;;;;;;;8.10;7.33;;;18.10;99.90;;;;;;5075120;28;20465;-74
2021/08/19 02:50:06;;;;;;;9.03;8.13;;;18.10;99.90;;;;;;5074880;28;20458;-73
2021/08/19 02:52:33;;;;;;;10.03;7.70;;;18.10;99.90;;;;;;5074986;28;20917;-73
2021/08/19 02:55:01;;;;;;;8.13;7.30;;;18.10;99.90;;;;;;5074840;28;20488;-74
2021/08/19 02:57:28;;;;;;;11.50;7.40;;;18.10;99.90;;;;;;5074812;28;20934;-74
2021/08/19 02:59:54;;;;;;;7.53;6.73;;;18.10;99.90;;;;;;5075191;28;20516;-74
2021/08/19 03:02:21;;;;;;;8.10;7.40;;;18.10;99.90;;;;;;5075009;28;20478;-75
2021/08/19 03:04:48;;;;;;;8.37;7.67;;;18.10;99.90;;;;;;5074928;28;20458;-73
2021/08/19 03:07:14;;;;;;;8.10;7.20;;;18.00;99.90;;;;;;5074747;28;20538;-73
2021/08/19 03:09:41;;;;;;;8.43;7.00;;;17.90;99.90;;;;;;5075188;28;20458;-74
2021/08/19 03:12:10;;;;;;;8.40;7.60;;;17.90;99.90;;;;;;5075013;28;20446;-73
2021/08/19 03:14:37;;;;;;;8.30;7.50;;;17.80;99.90;;;;;;5075023;28;20887;-73
2021/08/19 03:17:06;;;;;;;8.40;6.93;;;17.90;99.90;;;;;;5075084;28;20457;-73
2021/08/19 03:19:33;;;;;;;9.70;8.77;;;17.80;99.90;;;;;;5074603;28;20458;-73
2021/08/19 03:22:00;;;;;;;8.17;7.47;;;17.80;99.90;;;;;;5075214;28;20461;-74
2021/08/19 03:24:27;;;;;;;7.97;7.37;;;17.80;99.90;;;;;;5074349;28;20454;-74
2021/08/19 03:26:54;;;;;;;8.57;7.77;;;17.80;99.90;;;;;;5074525;28;20832;-74
2021/08/19 03:29:23;;;;;;;7.87;7.17;;;17.80;99.90;;;;;;5074823;28;20462;-74
2021/08/19 03:31:50;;;;;;;8.27;7.57;;;17.90;99.90;;;;;;5074794;28;20458;-74
2021/08/19 03:34:17;;;;;;;8.50;7.73;;;17.90;99.90;;;;;;5074573;28;20490;-74
2021/08/19 03:36:44;;;;;;;11.73;8.73;;;17.90;99.90;;;;;;5074234;28;20466;-75
2021/08/19 03:39:11;;;;;;;8.73;7.80;;;17.90;99.90;;;;;;5074523;28;20454;-73
2021/08/19 03:41:38;;;;;;;9.47;8.33;;;17.80;99.90;;;;;;5074082;28;20485;-74
2021/08/19 03:44:05;;;;;;;8.50;7.57;;;17.80;99.90;;;;;;5074331;28;20478;-74
2021/08/19 03:46:33;;;;;;;8.60;7.80;;;17.90;99.90;;;;;;5074097;28;20465;-74
2021/08/19 03:49:00;;;;;;;9.20;8.30;;;17.80;99.90;;;;;;5074682;28;20478;-74
2021/08/19 03:51:29;;;;;;;9.20;8.33;;;17.80;99.90;;;;;;5074442;28;20515;-75
2021/08/19 03:53:56;;;;;;;9.13;8.20;;;17.80;99.90;;;;;;5073950;28;20910;-74
2021/08/19 03:56:25;;;;;;;11.87;9.33;;;17.80;99.90;;;;;;5074606;28;20469;-74
2021/08/19 03:58:52;;;;;;;10.47;7.90;;;17.80;99.90;;;;;;5074482;28;20486;-74
2021/08/19 04:01:18;;;;;;;10.63;7.70;;;17.70;99.90;;;;;;5074115;28;20520;-73
2021/08/19 04:03:47;;;;;;;13.40;7.70;;;17.80;99.90;;;;;;5074639;28;20489;-73
2021/08/19 04:06:14;;;;;;;9.00;8.10;;;17.70;99.90;;;;;;5074339;28;20512;-73
2021/08/19 04:08:40;;;;;;;8.50;7.80;;;17.70;99.90;;;;;;5074344;28;20462;-73
2021/08/19 04:11:07;;;;;;;7.80;7.10;;;17.70;99.90;;;;;;5074255;28;20459;-73
2021/08/19 04:13:34;;;;;;;10.73;7.57;;;17.70;99.90;;;;;;5074469;28;20840;-73
2021/08/19 04:16:01;;;;;;;7.90;7.10;;;17.70;99.90;;;;;;5074241;28;20469;-73
2021/08/19 04:18:27;;;;;;;7.57;6.87;;;17.60;99.90;;;;;;5074920;28;20450;-72
2021/08/19 04:20:55;;;;;;;6.73;6.10;;;17.60;99.90;;;;;;5074035;28;20496;-73
2021/08/19 04:23:22;;;;;;;9.40;6.53;;;17.60;99.90;;;;;;5073711;28;20486;-73
2021/08/19 04:25:49;;;;;;;6.93;6.33;;;17.60;99.90;;;;;;5074258;28;20465;-73
2021/08/19 04:28:16;;;;;;;6.90;6.20;;;17.50;99.90;;;;;;5074201;28;20549;-73
2021/08/19 04:30:43;;;;;;;6.57;5.93;;;17.50;99.90;;;;;;5073907;28;20474;-73
2021/08/19 04:33:10;;;;;;;6.40;5.80;;;17.50;99.90;;;;;;5074289;28;20923;-74
2021/08/19 04:35:37;;;;;;;6.07;5.37;;;17.50;99.90;;;;;;5073954;28;20466;-74
2021/08/19 04:38:05;;;;;;;5.40;4.90;;;17.50;99.90;;;;;;5074007;28;20469;-75
2021/08/19 04:40:32;;;;;;;7.00;5.20;;;17.50;99.90;;;;;;5074207;28;20511;-74
2021/08/19 04:43:00;;;;;;;6.77;4.60;;;17.40;99.90;;;;;;5073802;28;20489;-73
2021/08/19 04:45:27;;;;;;;5.43;4.90;;;17.40;99.90;;;;;;5074313;28;20469;-72
2021/08/19 04:47:54;;;;;;;5.10;4.60;;;17.30;99.90;;;;;;5074090;28;20465;-74
2021/08/19 04:50:21;;;;;;;5.47;4.50;;;17.30;99.90;;;;;;5074467;28;20468;-74
2021/08/19 04:52:47;;;;;;;4.87;4.47;;;17.30;99.90;;;;;;5074263;28;20450;-75
2021/08/19 04:55:15;;;;;;;4.83;4.43;;;17.20;99.90;;;;;;5074057;28;20953;-74
2021/08/19 04:57:42;;;;;;;5.10;4.63;;;17.20;99.90;;;;;;5073591;28;20470;-75
2021/08/19 05:00:11;;;;;;;5.50;5.00;;;17.20;99.90;;;;;;5074108;28;20788;-74
2021/08/19 05:02:37;;;;;;;5.30;4.80;;;17.10;99.90;;;;;;5073779;28;20478;-75
2021/08/19 05:05:05;;;;;;;5.50;5.00;;;17.10;99.90;;;;;;5073970;28;20454;-74
2021/08/19 05:07:32;;;;;;;6.80;4.90;;;17.10;99.90;;;;;;5074144;28;20471;-74
2021/08/19 05:09:59;;;;;;;7.97;5.20;;;17.10;99.90;;;;;;5074071;28;20455;-73
2021/08/19 05:12:27;;;;;;;7.33;5.90;;;17.10;99.90;;;;;;5073706;28;20523;-76
2021/08/19 05:14:53;;;;;;;6.80;5.67;;;17.00;99.90;;;;;;5074004;28;20464;-73
2021/08/19 05:17:20;;;;;;;6.43;5.43;;;16.90;99.90;;;;;;5073711;28;20488;-74
2021/08/19 05:19:47;;;;;;;6.70;5.37;;;16.90;99.90;;;;;;5075345;28;20458;-74
2021/08/19 05:22:14;;;;;;;6.57;5.97;;;16.90;99.90;;;;;;5077193;28;20457;-74
2021/08/19 05:24:40;;;;;;;7.73;7.03;;;16.90;99.90;;;;;;5077002;28;20496;-74
2021/08/19 05:27:07;;;;;;;6.73;6.03;;;16.90;99.90;;;;;;5077236;28;20462;-74
2021/08/19 05:29:35;;;;;;;7.50;6.80;;;16.90;99.90;;;;;;5077126;28;20458;-74
2021/08/19 05:32:02;;;;;;;8.00;7.00;;;16.90;99.90;;;;;;5077109;28;20466;-74
2021/08/19 05:34:29;;;;;;;11.83;8.20;;;16.90;99.90;;;;;;5076976;28;20481;-74
2021/08/19 05:36:55;;;;;;;9.30;7.23;;;16.90;99.90;;;;;;5076960;28;20515;-75
2021/08/19 05:39:22;;;;;;;7.90;7.13;;;16.90;99.90;;;;;;5076962;28;20464;-75
2021/08/19 05:41:49;;;;;;;8.50;7.77;;;16.90;99.90;;;;;;5076663;28;20486;-75
2021/08/19 05:44:15;;;;;;;8.50;7.70;;;16.90;99.90;;;;;;5076803;28;20463;-73
2021/08/19 05:46:43;;;;;;;9.10;7.00;;;16.90;99.90;;;;;;5076843;28;20561;-75
2021/08/19 05:49:10;;;;;;;9.17;7.40;;;17.00;99.90;;;;;;5076734;28;20465;-74
2021/08/19 05:51:37;;;;;;;8.87;7.43;;;17.00;99.90;;;;;;5077382;28;20462;-75
2021/08/19 05:54:04;;;;;;;10.30;7.67;;;17.00;99.90;;;;;;5077247;28;20533;-74
2021/08/19 05:56:31;;;;;;;8.57;6.70;;;16.90;99.90;;;;;;5077639;28;20458;-74
2021/08/19 05:58:58;;;;;;;7.17;6.47;;;16.90;99.90;;;;;;5076686;28;20454;-74
2021/08/19 06:01:25;;;;;;;7.93;7.10;;;17.00;99.90;;;;;;5076279;28;20454;-73
2021/08/19 06:03:53;;;;;;;7.77;7.07;;;17.00;99.90;;;;;;5076209;28;20482;-74
2021/08/19 06:06:19;;;;;;;8.63;7.73;;;17.10;99.90;;;;;;5076198;28;20919;-75
2021/08/19 06:08:46;;;;;;;8.33;7.40;;;17.00;99.90;;;;;;5076807;28;20820;-74
2021/08/19 06:11:13;;;;;;;7.70;7.00;;;17.00;99.90;;;;;;5076146;28;20459;-74
2021/08/19 06:13:40;;;;;;;8.47;6.77;;;17.00;99.90;;;;;;5076030;28;20458;-76
2021/08/19 06:16:06;;;;;;;7.87;7.07;;;17.00;99.90;;;;;;5076871;28;20458;-75
2021/08/19 06:18:33;;;;;;;8.03;7.10;;;17.00;99.90;;;;;;5076707;28;20469;-74
2021/08/19 06:21:01;;;;;;;8.00;7.20;;;17.00;99.90;;;;;;5076108;28;20462;-73
2021/08/19 06:23:28;;;;;;;7.63;6.90;;;17.00;99.90;;;;;;5076139;28;20787;-74
2021/08/19 06:25:55;;;;;;;7.70;6.60;;;17.00;99.90;;;;;;5076109;28;20450;-75
2021/08/19 06:28:24;;;;;;;6.70;5.97;;;17.10;99.90;;;;;;5076075;28;20465;-74
2021/08/19 06:30:51;;;;;;;8.67;7.10;;;17.10;99.90;;;;;;5075284;28;20466;-74
2021/08/19 06:33:18;;;;;;;6.40;5.63;;;17.20;99.90;;;;;;5075586;28;20522;-75
2021/08/19 06:35:45;;;;;;;8.70;7.80;;;17.30;99.90;;;;;;5076103;28;20469;-74
2021/08/19 06:38:14;;;;;;;7.50;6.57;;;17.30;99.90;;;;;;5075596;28;20801;-74
2021/08/19 06:40:41;;;;;;;9.73;6.60;;;17.40;99.90;;;;;;5075272;28;20457;-75
2021/08/19 06:43:07;;;;;;;6.93;6.30;;;17.40;99.90;;;;;;5075238;28;20497;-74
2021/08/19 06:45:34;;;;;;;6.87;6.27;;;17.50;99.90;;;;;;5075368;28;20906;-75
2021/08/19 06:48:01;;;;;;;7.77;6.13;;;17.50;99.90;;;;;;5075303;28;20462;-74
2021/08/19 06:50:28;;;;;;;6.70;6.00;;;17.60;99.90;;;;;;5075202;28;20454;-74
2021/08/19 06:52:54;;;;;;;6.47;5.80;;;17.60;99.90;;;;;;5075186;28;20461;-74
2021/08/19 06:55:22;;;;;;;7.70;5.90;;;17.60;99.90;;;;;;5075347;28;20469;-74
2021/08/19 06:57:52;;;;;;;11.90;7.03;;;17.70;99.90;;;;;;5075994;28;20466;-75
2021/08/19 07:00:19;;;;;;;13.53;6.03;;;17.70;99.90;;;;;;5075595;28;20815;-74
2021/08/19 07:02:46;;;;;;;7.17;6.33;;;17.70;99.90;;;;;;5075877;28;20465;-74
2021/08/19 07:05:13;;;;;;;6.97;6.13;;;17.70;99.90;;;;;;5075179;28;20493;-74
2021/08/19 07:07:40;;;;;;;11.40;6.00;;;17.80;99.90;;;;;;5074966;28;20461;-75
2021/08/19 07:10:08;;;;;;;6.93;6.23;;;17.80;99.90;;;;;;5075035;28;20447;-74
2021/08/19 07:12:36;;;;;;;7.30;5.77;;;17.90;99.90;;;;;;5075509;28;20454;-76
2021/08/19 07:15:04;;;;;;;7.30;6.00;;;17.90;99.90;;;;;;5075151;28;20451;-77
2021/08/19 07:17:30;;;;;;;9.03;7.00;;;17.90;99.90;;;;;;5075527;28;20766;-76
2021/08/19 07:19:57;;;;;;;7.53;6.70;;;17.80;99.90;;;;;;5075795;28;20476;-75
2021/08/19 07:22:25;;;;;;;7.23;6.43;;;17.80;99.90;;;;;;5075405;28;20458;-75
2021/08/19 07:24:52;;;;;;;8.17;6.47;;;17.80;99.90;;;;;;5075481;28;20791;-77
2021/08/19 07:27:19;;;;;;;10.03;7.10;;;17.80;99.90;;;;;;5075390;28;20461;-78
2021/08/19 07:29:47;;;;;;;8.20;7.17;;;17.70;99.90;;;;;;5075682;28;20600;-77
2021/08/19 07:32:15;;;;;;;9.70;6.83;;;17.70;99.90;;;;;;5075171;28;20458;-74
2021/08/19 07:34:41;;;;;;;7.20;6.20;;;17.70;99.90;;;;;;5075341;28;20778;-76
2021/08/19 07:37:08;;;;;;;7.60;6.23;;;17.80;99.90;;;;;;5075094;28;20446;-75
2021/08/19 07:39:35;;;;;;;7.83;7.03;;;17.80;99.90;;;;;;5075237;28;20555;-77
2021/08/19 07:42:02;;;;;;;9.90;6.80;;;17.90;99.90;;;;;;5073683;28;20482;-76
2021/08/19 07:44:28;;;;;;;8.10;6.83;;;17.90;99.90;;;;;;5074515;28;20569;-75
2021/08/19 07:46:56;;;;;;;7.57;6.33;;;18.00;99.90;;;;;;5074691;28;20454;-74
2021/08/19 07:49:23;;;;;;;7.00;6.30;;;18.00;99.90;;;;;;5075739;28;20453;-74
2021/08/19 07:51:50;;;;;;;10.97;6.63;;;18.00;99.90;;;;;;5074879;28;20465;-75
2021/08/19 07:54:17;;;;;;;9.53;6.70;;;18.10;99.90;;;;;;5074991;28;20854;-75
2021/08/19 07:56:44;;;;;;;8.30;6.70;;;18.20;99.90;;;;;;5074780;28;20515;-76
2021/08/19 07:59:11;;;;;;;9.73;6.27;;;18.20;99.90;;;;;;5074920;28;20528;-77
2021/08/19 08:01:38;;;;;;;10.30;6.13;;;18.20;99.90;;;;;;5075556;28;20461;-75
2021/08/19 08:04:08;;;;;;;8.17;5.40;;;18.10;99.90;;;;;;5075016;28;20474;-75
2021/08/19 08:06:35;;;;;;;7.20;5.60;;;18.10;99.90;;;;;;5075698;28;20488;-76
2021/08/19 08:09:02;;;;;;;8.00;5.90;;;18.10;99.90;;;;;;5075209;28;20450;-76
2021/08/19 08:11:32;;;;;;;6.40;5.80;;;18.20;99.90;;;;;;5074892;28;20454;-75
2021/08/19 08:13:59;;;;;;;7.20;5.57;;;18.20;99.90;;;;;;5075502;28;20446;-74
2021/08/19 08:16:26;;;;;;;7.93;5.57;;;18.20;99.90;;;;;;5075504;28;20903;-77
2021/08/19 08:18:54;;;;;;;6.20;5.27;;;18.30;99.90;;;;;;5076383;28;20454;-77
2021/08/19 08:21:26;;;;;;;6.80;5.80;;;18.30;99.90;;;;;;5076813;28;20473;-77
2021/08/19 08:23:53;;;;;;;9.40;6.00;;;18.40;99.90;;;;;;5075781;28;20922;-74
2021/08/19 08:26:21;;;;;;;5.30;4.73;;;18.30;99.90;;;;;;5078269;28;20516;-74
2021/08/19 08:28:50;;;;;;;6.50;5.90;;;18.40;99.90;;;;;;5086187;28;20827;-73
2021/08/19 08:31:17;;;;;;;7.93;5.23;;;18.40;99.90;;;;;;5081240;28;20480;-75
2021/08/19 08:33:45;;;;;;;7.17;5.17;;;18.50;99.90;;;;;;5085312;28;20919;-75
2021/08/19 08:36:12;;;;;;;5.50;5.00;;;18.50;99.90;;;;;;5086801;28;20450;-75
2021/08/19 08:38:40;;;;;;;5.73;5.13;;;18.60;99.90;;;;;;5088548;28;20454;-74
2021/08/19 08:41:08;;;;;;;6.20;5.60;;;18.50;99.90;;;;;;5088947;28;20447;-75
2021/08/19 08:43:37;;;;;;;7.23;5.27;;;18.50;99.90;;;;;;5088557;28;20492;-76
2021/08/19 08:46:06;;;;;;;7.63;5.30;;;18.50;99.90;;;;;;5088454;28;20919;-75
2021/08/19 08:48:33;;;;;;;6.50;5.17;;;18.50;99.90;;;;;;5086626;28;20465;-75
2021/08/19 08:51:00;;;;;;;6.47;5.87;;;18.50;99.90;;;;;;5086671;28;20465;-76
2021/08/19 08:53:27;;;;;;;5.90;5.30;;;18.50;99.90;;;;;;5082047;28;20777;-75
2021/08/19 08:55:55;;;;;;;7.70;5.67;;;18.50;99.90;;;;;;5079044;28;20773;-76
2021/08/19 08:58:23;;;;;;;5.80;5.17;;;18.50;99.90;;;;;;5078646;28;20454;-76
2021/08/19 09:00:54;;;;;;;10.10;5.77;;;18.60;99.90;;;;;;5082347;28;20468;-75
2021/08/19 09:03:22;;;;;;;5.83;5.30;;;18.70;99.90;;;;;;5081791;28;20442;-76
2021/08/19 09:05:50;;;;;;;8.43;5.10;;;18.70;99.90;;;;;;5081276;28;20529;-75
2021/08/19 09:08:19;;;;;;;9.27;5.63;;;18.80;99.90;;;;;;5078945;28;20532;-75
2021/08/19 09:10:47;;;;;;;6.27;4.60;;;18.80;99.90;;;;;;5078363;28;20462;-76
2021/08/19 09:13:17;;;;;;;7.17;5.00;;;18.80;99.90;;;;;;5077482;28;20458;-76
2021/08/19 09:15:45;;;;;;;7.27;4.90;;;18.90;99.90;;;;;;5077954;28;20431;-75
2021/08/19 09:18:12;;;;;;;4.73;4.30;;;19.00;99.90;;;;;;5077717;28;20488;-75
2021/08/19 09:20:41;;;;;;;4.73;4.33;;;19.10;99.90;;;;;;5077377;28;20914;-75
2021/08/19 09:23:09;;;;;;;5.60;4.23;;;19.20;99.90;;;;;;5077408;28;20455;-74
2021/08/19 09:25:38;;;;;;;5.30;4.37;;;19.20;99.90;;;;;;5078004;28;20478;-77
2021/08/19 09:28:17;;;;;;;5.90;4.30;;;19.20;99.90;;;;;;5077711;28;20458;-74
2021/08/19 09:30:47;;;;;;;6.13;4.53;;;19.00;99.90;;;;;;5077502;28;20445;-75
2021/08/19 09:33:16;;;;;;;5.27;4.77;;;19.00;99.90;;;;;;5078238;28;20438;-76
2021/08/19 09:35:45;;;;;;;4.17;3.77;;;19.10;99.90;;;;;;5077531;28;20455;-75
2021/08/19 09:38:13;;;;;;;4.57;4.13;;;19.10;99.90;;;;;;5077520;28;20485;-75
2021/08/19 09:40:41;;;;;;;6.40;4.20;;;19.20;99.90;;;;;;5077108;28;20495;-76
2021/08/19 09:43:08;;;;;;;7.80;4.10;;;19.20;99.90;;;;;;5076911;28;20500;-75
2021/08/19 09:45:46;;;;;;;4.70;4.30;;;19.20;99.90;;;;;;5077049;28;20489;-75
2021/08/19 09:48:14;;;;;;;7.23;4.67;;;19.20;99.90;;;;;;5077127;28;20445;-75
2021/08/19 09:50:42;;;;;;;5.43;4.67;;;19.30;99.90;;;;;;5077030;28;20915;-75
2021/08/19 09:53:21;;;;;;;4.73;4.33;;;19.30;99.90;;;;;;5076732;28;20914;-75
2021/08/19 09:55:47;;;;;;;8.33;4.70;;;19.30;99.90;;;;;;5077014;28;20521;-75
2021/08/19 09:58:29;;;;;;;4.93;4.43;;;19.30;99.90;;;;;;5077150;28;20475;-75
2021/08/19 10:00:57;;;;;;;5.90;5.30;;;19.30;99.90;;;;;;5076716;28;20481;-75
2021/08/19 10:03:26;;;;;;;7.00;4.90;;;19.30;99.90;;;;;;5076695;28;20565;-75
2021/08/19 10:05:53;;;;;;;5.83;4.73;;;19.30;99.90;;;;;;5075587;28;20474;-75
2021/08/19 10:08:20;;;;;;;5.00;4.30;;;19.40;99.90;;;;;;5077215;28;20454;-75
2021/08/19 10:10:49;;;;;;;5.43;4.57;;;19.40;99.90;;;;;;5076563;28;20462;-75
2021/08/19 10:13:16;;;;;;;5.83;5.23;;;19.40;99.90;;;;;;5076500;28;20458;-75
2021/08/19 10:15:45;;;;;;;6.47;4.80;;;19.40;99.90;;;;;;5076000;28;20458;-75
2021/08/19 10:18:18;;;;;;;5.80;5.20;;;19.30;99.90;;;;;;5076919;28;20477;-75
2021/08/19 10:20:49;;;;;;;6.90;5.10;;;19.20;99.90;;;;;;5076725;28;20761;-76
2021/08/19 10:23:16;;;;;;;12.33;5.33;;;19.10;99.90;;;;;;5076545;28;20454;-75
2021/08/19 10:25:44;;;;;;;7.30;4.77;;;19.10;99.90;;;;;;5076433;28;20489;-74
2021/08/19 10:28:17;;;;;;;7.83;5.80;;;19.10;99.90;;;;;;5076606;28;20886;-76
2021/08/19 10:30:51;;;;;;;6.83;5.47;;;19.10;99.90;;;;;;5076046;28;20484;-76
2021/08/19 10:33:45;;;;;;;6.03;5.43;;;19.10;99.90;;;;;;5075562;28;20445;-74
2021/08/19 10:36:51;;;;;;;7.93;5.47;;;19.00;99.90;;;;;;5076036;28;20450;-75
2021/08/19 10:39:38;;;;;;;5.03;4.53;;;19.00;99.90;;;;;;5015556;28;20455;-75
2021/08/19 10:42:08;;;;;;;6.27;5.67;;;19.10;99.90;;;;;;5073727;28;20962;-74
2021/08/19 10:44:37;;;;;;;6.53;5.93;;;19.20;99.90;;;;;;5076845;28;20473;-74
2021/08/19 10:47:04;;;;;;;6.50;5.90;;;19.40;99.90;;;;;;5077713;28;20454;-77
2021/08/19 10:49:35;;;;;;;7.23;5.67;;;19.60;99.90;;;;;;5076374;28;20462;-73
2021/08/19 10:52:28;;;;;;;5.40;4.90;;;19.80;99.90;;;;;;5077701;28;20466;-74
2021/08/19 10:55:11;;;;;;;7.27;6.57;;;19.90;99.90;;;;;;5081140;28;20454;-75
2021/08/19 10:57:56;;;;;;;8.67;5.63;;;19.70;99.90;;;;;;5084993;28;20890;-72
2021/08/19 11:00:40;;;;;;;5.90;5.23;;;19.70;99.90;;;;;;5086699;28;20447;-74
2021/08/19 11:03:07;;;;;;;12.17;5.37;;;19.80;99.90;;;;;;5085961;28;20434;-73
2021/08/19 11:05:55;;;;;;;8.17;5.40;;;19.90;99.90;;;;;;5078500;28;20762;-75
2021/08/19 11:08:43;;;;;;;8.67;5.47;;;20.00;99.90;;;;;;5076811;28;20509;-74
2021/08/19 11:11:11;;;;;;;5.87;5.27;;;20.10;99.90;;;;;;5076533;28;20893;-75
2021/08/19 11:13:38;;;;;;;9.43;5.60;;;20.10;99.90;;;;;;5076341;28;20470;-72
2021/08/19 11:16:10;;;;;;;5.03;4.53;;;20.20;99.90;;;;;;5076239;28;20890;-73
2021/08/19 11:18:38;;;;;;;8.53;5.03;;;20.30;99.90;;;;;;5077174;28;20785;-75
2021/08/19 11:21:08;;;;;;;7.40;5.43;;;20.50;99.90;;;;;;5076102;28;20786;-74
2021/08/19 11:23:38;;;;;;;11.53;4.90;;;20.60;99.90;;;;;;5074787;28;20463;-74
2021/08/19 11:26:06;;;;;;;7.20;5.13;;;20.70;99.90;;;;;;5074689;28;20485;-74
2021/08/19 11:28:39;;;;;;;5.67;5.03;;;20.80;99.90;;;;;;5074742;28;20477;-74
2021/08/19 11:31:19;;;;;;;6.37;4.87;;;20.80;99.90;;;;;;5074697;28;20462;-75
2021/08/19 11:33:46;;;;;;;6.40;4.27;;;20.80;99.90;;;;;;5074384;28;20446;-76
2021/08/19 11:36:16;;;;;;;6.83;4.30;;;20.70;99.90;;;;;;5074598;28;20761;-76
2021/08/19 11:38:43;;;;;;;6.90;5.30;;;20.60;99.90;;;;;;5075043;28;20819;-76
2021/08/19 11:41:21;;;;;;;6.37;4.80;;;20.50;99.90;;;;;;5074187;28;20469;-75
2021/08/19 11:43:49;;;;;;;7.83;4.53;;;20.30;99.90;;;;;;5074387;28;20438;-75
2021/08/19 11:46:19;;;;;;;5.10;4.60;;;20.20;99.90;;;;;;5074497;28;20478;-74
2021/08/19 11:48:51;;;;;;;5.03;4.53;;;20.30;99.90;;;;;;5075110;28;20473;-75
2021/08/19 11:51:26;;;;;;;4.80;3.70;;;20.70;99.90;;;;;;5074607;28;20453;-75
2021/08/19 11:53:54;;;;;;;4.20;3.80;;;21.40;99.90;;;;;;5074376;28;20449;-74
2021/08/19 11:56:28;;;;;;;5.90;3.87;;;21.90;99.90;;;;;;5074477;28;20853;-74
2021/08/19 11:59:02;;;;;;;4.20;3.80;;;22.20;99.90;;;;;;5074838;28;20479;-74
2021/08/19 12:01:30;;;;;;;4.53;3.60;;;22.40;99.90;;;;;;5074280;28;20458;-74
2021/08/19 12:03:57;;;;;;;4.47;4.07;;;22.40;99.90;;;;;;5074234;28;20505;-74
2021/08/19 12:06:28;;;;;;;4.20;3.57;;;22.50;99.90;;;;;;5074115;28;20489;-74
2021/08/19 12:08:56;;;;;;;5.30;3.40;;;22.60;99.90;;;;;;5074085;28;20452;-74
2021/08/19 12:11:25;;;;;;;3.13;2.83;;;23.10;99.90;;;;;;5074236;28;20528;-74
2021/08/19 12:13:54;;;;;;;5.27;3.40;;;23.50;99.90;;;;;;5073974;28;20458;-75
2021/08/19 12:16:22;;;;;;;4.73;3.80;;;23.80;99.90;;;;;;5074051;28;20872;-74
2021/08/19 12:19:14;;;;;;;3.60;3.30;;;23.90;99.90;;;;;;5074049;28;20557;-76
2021/08/19 12:21:54;;;;;;;3.87;3.53;;;23.80;99.90;;;;;;5059048;28;20488;-74
2021/08/19 12:24:24;;;;;;;6.93;3.67;;;23.50;99.90;;;;;;5073829;28;20438;-75
2021/08/19 12:27:02;;;;;;;4.67;3.70;;;23.60;99.90;;;;;;5073479;28;20950;-74
2021/08/19 12:29:30;;;;;;;4.53;4.00;;;23.50;99.90;;;;;;5077756;28;20484;-76
2021/08/19 12:31:58;;;;;;;6.13;3.80;;;23.40;99.90;;;;;;5078002;28;20466;-76
2021/08/19 12:34:25;;;;;;;7.40;4.13;;;23.40;99.90;;;;;;5077695;28;20917;-75
2021/08/19 12:36:53;;;;;;;5.00;3.67;;;23.70;99.90;;;;;;5077713;28;20462;-75
2021/08/19 12:39:22;;;;;;;4.57;3.70;;;24.30;99.90;;;;;;5077855;28;20465;-75
2021/08/19 12:41:50;;;;;;;4.73;3.57;;;25.00;99.90;;;;;;5077276;28;20528;-75
2021/08/19 12:44:19;;;;;;;4.20;3.73;;;25.40;99.90;;;;;;5077401;28;20784;-75
2021/08/19 12:46:48;;;;;;;4.00;3.20;;;25.80;99.90;;;;;;5077388;28;20478;-73
2021/08/19 12:49:28;;;;;;;3.70;3.33;;;26.20;99.90;;;;;;5077813;28;20461;-73
2021/08/19 12:52:27;;;;;;;4.13;3.20;;;26.70;99.90;;;;;;5077745;28;20430;-74